createdAt,value
2023-05-01T00:00:13.748Z,195.68
2023-05-01T00:01:13.805Z,198.35
2023-05-01T00:02:13.872Z,195.09
2023-05-01T00:03:14.051Z,197.02
2023-05-01T00:04:14.136Z,197.85
2023-05-01T00:05:14.077Z,195.10
2023-05-01T00:06:14.109Z,196.84
2023-05-01T00:07:14.146Z,197.18
2023-05-01T00:08:14.148Z,197.34
2023-05-01T00:09:14.152Z,197.55
2023-05-01T00:10:14.151Z,198.12
2023-05-01T00:11:14.155Z,195.43
2023-05-01T00:12:14.170Z,199.53
2023-05-01T00:13:14.162Z,204.10
2023-05-01T00:14:14.168Z,201.61
2023-05-01T00:15:14.182Z,199.90
2023-05-01T00:16:14.192Z,200.51
2023-05-01T00:17:14.140Z,201.33
2023-05-01T00:18:14.256Z,201.70
2023-05-01T00:19:14.512Z,201.68
2023-05-01T00:20:14.399Z,200.68
2023-05-01T00:21:14.378Z,203.57
2023-05-01T00:22:14.446Z,198.60
2023-05-01T00:23:14.522Z,195.81
2023-05-01T00:24:14.582Z,197.81
2023-05-01T00:25:14.630Z,195.90
2023-05-01T00:26:14.694Z,198.17
2023-05-01T00:27:14.771Z,197.49
2023-05-01T00:28:14.836Z,195.71
2023-05-01T00:29:14.905Z,199.00
2023-05-01T00:30:14.976Z,204.11
2023-05-01T00:31:15.039Z,204.02
2023-05-01T00:32:15.218Z,203.70
2023-05-01T00:33:15.148Z,202.55
2023-05-01T00:34:15.219Z,203.36
2023-05-01T00:35:15.285Z,206.93
2023-05-01T00:36:15.331Z,203.85
2023-05-01T00:37:15.413Z,205.81
2023-05-01T00:38:15.454Z,206.10
2023-05-01T00:39:15.548Z,207.83
2023-05-01T00:40:15.608Z,208.31
2023-05-01T00:41:15.701Z,209.67
2023-05-01T00:42:15.727Z,206.82
2023-05-01T00:43:15.777Z,209.61
2023-05-01T00:44:15.824Z,211.52
2023-05-01T00:45:15.893Z,209.90
2023-05-01T00:46:15.974Z,211.32
2023-05-01T00:47:16.024Z,216.07
2023-05-01T00:48:16.066Z,216.11
2023-05-01T00:49:16.031Z,216.40
2023-05-01T00:50:16.039Z,216.25
2023-05-01T00:51:16.044Z,217.21
2023-05-01T00:52:16.008Z,217.99
2023-05-01T00:53:16.035Z,218.00
2023-05-01T00:54:16.014Z,222.22
2023-05-01T00:55:16.013Z,221.50
2023-05-01T00:56:15.998Z,221.79
2023-05-01T00:57:15.995Z,223.80
2023-05-01T00:58:15.981Z,222.27
2023-05-01T00:59:16.007Z,224.61
2023-05-01T01:00:16.053Z,224.36
2023-05-01T01:01:16.175Z,222.72
2023-05-01T01:02:16.173Z,225.56
2023-05-01T01:03:16.227Z,225.03
2023-05-01T01:04:16.301Z,223.44
2023-05-01T01:05:16.360Z,226.30
2023-05-01T01:06:16.529Z,227.18
2023-05-01T01:07:16.470Z,225.71
2023-05-01T01:08:16.529Z,228.59
2023-05-01T01:09:16.578Z,227.30
2023-05-01T01:10:16.668Z,228.76
2023-05-01T01:11:16.714Z,228.98
2023-05-01T01:12:16.770Z,228.57
2023-05-01T01:13:16.818Z,229.03
2023-05-01T01:14:16.875Z,228.21
2023-05-01T01:15:16.963Z,230.71
2023-05-01T01:16:17.018Z,230.70
2023-05-01T01:17:17.094Z,231.27
2023-05-01T01:18:17.153Z,229.03
2023-05-01T01:19:17.223Z,231.33
2023-05-01T01:20:17.289Z,230.14
2023-05-01T01:21:17.329Z,231.57
2023-05-01T01:22:17.385Z,231.38
2023-05-01T01:23:17.379Z,231.55
2023-05-01T01:24:17.380Z,231.94
2023-05-01T01:25:17.387Z,233.02
2023-05-01T01:26:17.382Z,233.25
2023-05-01T01:27:17.384Z,235.21
2023-05-01T01:28:17.394Z,233.81
2023-05-01T01:29:17.387Z,232.67
2023-05-01T01:30:17.418Z,235.59
2023-05-01T01:31:17.434Z,234.58
2023-05-01T01:32:17.379Z,234.28
2023-05-01T01:33:17.420Z,236.85
2023-05-01T01:34:17.398Z,236.96
2023-05-01T01:35:17.404Z,237.27
2023-05-01T01:36:17.401Z,237.37
2023-05-01T01:37:17.415Z,238.10
2023-05-01T01:38:17.370Z,237.22
2023-05-01T01:39:17.370Z,237.06
2023-05-01T01:40:17.378Z,237.37
2023-05-01T01:41:17.375Z,236.82
2023-05-01T01:42:17.383Z,237.31
2023-05-01T01:43:17.479Z,239.68
2023-05-01T01:44:17.375Z,238.67
2023-05-01T01:45:17.389Z,240.20
2023-05-01T01:46:17.453Z,239.23
2023-05-01T01:47:17.355Z,237.83
2023-05-01T01:48:17.366Z,239.26
2023-05-01T01:50:17.500Z,239.52
2023-05-01T01:51:17.568Z,239.57
2023-05-01T01:52:17.643Z,240.10
2023-05-01T01:53:17.674Z,239.76
2023-05-01T01:54:17.766Z,241.00
2023-05-01T01:55:17.796Z,242.32
2023-05-01T01:56:17.836Z,239.38
2023-05-01T01:57:17.883Z,239.43
2023-05-01T01:58:17.944Z,237.08
2023-05-01T01:59:18.025Z,240.96
2023-05-01T02:00:18.055Z,238.63
2023-05-01T02:01:18.157Z,238.89
2023-05-01T02:02:18.164Z,238.43
2023-05-01T02:03:18.318Z,236.05
2023-05-01T02:04:18.347Z,235.06
2023-05-01T02:05:18.367Z,236.50
2023-05-01T02:06:18.485Z,231.53
2023-05-01T02:07:18.485Z,227.00
2023-05-01T02:08:18.549Z,226.88
2023-05-01T02:09:18.613Z,222.71
2023-05-01T02:10:18.697Z,218.26
2023-05-01T02:11:18.753Z,210.37
2023-05-01T02:12:18.820Z,211.38
2023-05-01T02:13:18.901Z,216.45
2023-05-01T02:14:18.940Z,214.43
2023-05-01T02:15:19.013Z,208.85
2023-05-01T02:16:19.063Z,206.90
2023-05-01T02:17:19.085Z,207.13
2023-05-01T02:18:19.016Z,207.40
2023-05-01T02:19:19.012Z,207.64
2023-05-01T02:20:19.006Z,206.53
2023-05-01T02:21:19.023Z,204.49
2023-05-01T02:22:18.986Z,206.13
2023-05-01T02:23:18.977Z,209.27
2023-05-01T02:24:18.976Z,206.03
2023-05-01T02:25:18.975Z,199.78
2023-05-01T02:26:19.028Z,199.14
2023-05-01T02:27:19.037Z,194.42
2023-05-01T02:28:19.112Z,195.74
2023-05-01T02:29:19.166Z,196.31
2023-05-01T02:30:19.190Z,196.01
2023-05-01T02:31:19.277Z,200.46
2023-05-01T02:32:19.330Z,196.13
2023-05-01T02:33:19.336Z,195.96
2023-05-01T02:34:19.361Z,185.80
2023-05-01T02:35:19.340Z,186.00
2023-05-01T02:36:19.342Z,186.83
2023-05-01T02:37:19.339Z,187.11
2023-05-01T02:38:19.368Z,180.81
2023-05-01T02:39:19.333Z,182.16
2023-05-01T02:40:19.319Z,184.11
2023-05-01T02:41:19.317Z,186.06
2023-05-01T02:42:19.313Z,183.53
2023-05-01T02:43:19.312Z,184.44
2023-05-01T02:44:19.284Z,169.06
2023-05-01T02:45:19.312Z,166.75
2023-05-01T02:46:19.387Z,173.44
2023-05-01T02:47:19.392Z,174.58
2023-05-01T02:48:19.397Z,174.29
2023-05-01T02:49:19.452Z,172.89
2023-05-01T02:50:19.466Z,168.26
2023-05-01T02:51:19.518Z,170.05
2023-05-01T02:52:19.557Z,171.81
2023-05-01T02:53:19.589Z,178.03
2023-05-01T02:54:19.627Z,178.24
2023-05-01T02:55:19.670Z,174.04
2023-05-01T02:56:19.651Z,159.57
2023-05-01T02:57:19.677Z,145.66
2023-05-01T02:58:19.715Z,127.54
2023-05-01T02:59:19.723Z,112.09
2023-05-01T03:00:19.795Z,91.69
2023-05-01T03:01:19.819Z,56.78
2023-05-01T03:02:19.791Z,35.81
2023-05-01T03:03:19.928Z,25.75
2023-05-01T03:04:19.859Z,1.11
2023-05-01T03:05:19.795Z,0.00
2023-05-01T03:06:19.817Z,0.00
2023-05-01T03:07:19.779Z,0.00
2023-05-01T03:08:19.754Z,0.00
2023-05-01T03:09:19.834Z,16.34
2023-05-01T03:10:19.776Z,23.57
2023-05-01T03:11:19.771Z,25.61
2023-05-01T03:12:19.747Z,25.00
2023-05-01T03:13:19.751Z,25.00
2023-05-01T03:14:19.741Z,25.00
2023-05-01T03:15:19.736Z,25.00
2023-05-01T03:16:19.752Z,25.30
2023-05-01T03:17:19.737Z,25.53
2023-05-01T03:18:19.719Z,26.85
2023-05-01T03:19:19.725Z,25.84
2023-05-01T03:20:19.724Z,25.00
2023-05-01T03:21:19.706Z,26.14
2023-05-01T03:22:19.693Z,33.20
2023-05-01T03:23:19.698Z,30.45
2023-05-01T03:24:19.684Z,30.09
2023-05-01T03:25:19.681Z,24.45
2023-05-01T03:26:19.705Z,28.62
2023-05-01T03:27:19.737Z,39.29
2023-05-01T03:28:19.735Z,39.94
2023-05-01T03:29:19.752Z,28.83
2023-05-01T03:30:19.758Z,25.47
2023-05-01T03:31:19.791Z,25.68
2023-05-01T03:32:19.828Z,25.78
2023-05-01T03:33:19.817Z,30.84
2023-05-01T03:34:19.831Z,35.19
2023-05-01T03:35:19.855Z,37.65
2023-05-01T03:36:19.865Z,43.38
2023-05-01T03:37:19.879Z,34.76
2023-05-01T03:38:19.906Z,37.90
2023-05-01T03:39:19.907Z,43.62
2023-05-01T03:40:19.929Z,34.59
2023-05-01T03:41:19.985Z,27.11
2023-05-01T03:42:19.968Z,28.58
2023-05-01T03:43:19.981Z,31.62
2023-05-01T03:44:20.039Z,41.32
2023-05-01T03:45:20.009Z,36.90
2023-05-01T03:46:20.155Z,42.30
2023-05-01T03:47:20.058Z,46.47
2023-05-01T03:48:20.098Z,35.63
2023-05-01T03:49:20.095Z,40.56
2023-05-01T03:50:20.090Z,42.28
2023-05-01T03:51:20.120Z,34.72
2023-05-01T03:52:20.100Z,34.80
2023-05-01T03:53:20.103Z,36.17
2023-05-01T03:54:20.104Z,40.82
2023-05-01T03:55:20.110Z,48.02
2023-05-01T03:56:20.089Z,59.85
2023-05-01T03:57:20.075Z,63.85
2023-05-01T03:58:20.076Z,67.61
2023-05-01T03:59:20.070Z,67.76
2023-05-01T04:00:20.062Z,68.49
2023-05-01T04:01:20.072Z,70.83
2023-05-01T04:02:20.195Z,75.22
2023-05-01T04:03:20.195Z,83.68
2023-05-01T04:04:20.081Z,87.91
2023-05-01T04:05:20.074Z,89.84
2023-05-01T04:06:20.095Z,92.37
2023-05-01T04:07:20.054Z,95.83
2023-05-01T04:08:20.086Z,97.23
2023-05-01T04:09:20.060Z,99.31
2023-05-01T04:10:20.047Z,103.51
2023-05-01T04:11:20.050Z,105.73
2023-05-01T04:12:20.029Z,108.87
2023-05-01T04:13:19.998Z,108.99
2023-05-01T04:14:20.000Z,109.65
2023-05-01T04:15:19.998Z,111.11
2023-05-01T04:16:20.088Z,114.22
2023-05-01T04:17:20.021Z,120.70
2023-05-01T04:18:20.033Z,109.32
2023-05-01T04:19:20.015Z,110.30
2023-05-01T04:20:20.012Z,113.18
2023-05-01T04:21:20.052Z,118.34
2023-05-01T04:22:20.008Z,128.37
2023-05-01T04:23:19.982Z,124.99
2023-05-01T04:24:20.004Z,125.35
2023-05-01T04:25:20.014Z,126.33
2023-05-01T04:26:20.037Z,126.49
2023-05-01T04:27:20.011Z,128.54
2023-05-01T04:28:20.012Z,131.21
2023-05-01T04:29:20.000Z,135.45
2023-05-01T04:30:19.998Z,135.64
2023-05-01T04:31:20.042Z,136.63
2023-05-01T04:32:20.050Z,137.53
2023-05-01T04:33:20.003Z,139.28
2023-05-01T04:34:20.002Z,139.47
2023-05-01T04:35:20.011Z,140.14
2023-05-01T04:36:20.008Z,140.30
2023-05-01T04:37:20.005Z,143.25
2023-05-01T04:38:20.004Z,148.31
2023-05-01T04:39:19.988Z,150.62
2023-05-01T04:40:20.067Z,152.62
2023-05-01T04:41:19.980Z,152.16
2023-05-01T04:42:20.002Z,152.26
2023-05-01T04:43:19.979Z,152.95
2023-05-01T04:44:19.978Z,154.89
2023-05-01T04:45:19.982Z,156.14
2023-05-01T04:46:19.997Z,159.77
2023-05-01T04:47:19.955Z,161.12
2023-05-01T04:48:20.020Z,163.27
2023-05-01T04:49:19.961Z,162.88
2023-05-01T04:50:19.946Z,163.34
2023-05-01T04:51:19.961Z,163.20
2023-05-01T04:52:19.957Z,164.42
2023-05-01T04:53:19.988Z,164.72
2023-05-01T04:54:19.946Z,165.90
2023-05-01T04:55:19.951Z,166.22
2023-05-01T04:56:20.137Z,167.36
2023-05-01T04:57:19.933Z,168.22
2023-05-01T04:58:19.906Z,167.25
2023-05-01T04:59:19.919Z,169.94
2023-05-01T05:00:19.961Z,167.37
2023-05-01T05:01:19.956Z,169.95
2023-05-01T05:02:20.109Z,170.25
2023-05-01T05:03:20.105Z,170.78
2023-05-01T05:04:20.030Z,170.88
2023-05-01T05:05:20.031Z,171.03
2023-05-01T05:06:20.057Z,172.02
2023-05-01T05:07:20.021Z,172.43
2023-05-01T05:08:20.022Z,175.21
2023-05-01T05:09:20.264Z,174.13
2023-05-01T05:10:20.025Z,174.97
2023-05-01T05:11:20.048Z,176.94
2023-05-01T05:12:20.040Z,176.93
2023-05-01T05:13:19.990Z,178.78
2023-05-01T05:14:20.007Z,178.63
2023-05-01T05:15:20.008Z,176.29
2023-05-01T05:16:20.084Z,174.97
2023-05-01T05:17:20.038Z,172.67
2023-05-01T05:18:20.171Z,169.74
2023-05-01T05:19:20.075Z,164.12
2023-05-01T05:20:20.157Z,159.93
2023-05-01T05:21:20.166Z,155.60
2023-05-01T05:22:20.182Z,148.64
2023-05-01T05:23:20.192Z,144.87
2023-05-01T05:24:20.179Z,144.52
2023-05-01T05:25:20.200Z,138.45
2023-05-01T05:26:20.192Z,125.57
2023-05-01T05:27:20.188Z,122.29
2023-05-01T05:28:20.193Z,117.79
2023-05-01T05:29:20.195Z,115.54
2023-05-01T05:30:20.196Z,110.05
2023-05-01T05:31:20.222Z,104.43
2023-05-01T05:32:20.335Z,106.85
2023-05-01T05:33:20.273Z,104.67
2023-05-01T05:34:20.237Z,103.48
2023-05-01T05:35:20.285Z,92.15
2023-05-01T05:36:20.271Z,92.92
2023-05-01T05:37:20.280Z,87.81
2023-05-01T05:38:20.292Z,90.47
2023-05-01T05:39:20.307Z,84.97
2023-05-01T05:40:20.314Z,81.10
2023-05-01T05:41:20.337Z,81.31
2023-05-01T05:42:20.369Z,81.96
2023-05-01T05:43:20.406Z,81.88
2023-05-01T05:44:20.385Z,81.31
2023-05-01T05:45:20.431Z,74.23
2023-05-01T05:46:20.490Z,68.85
2023-05-01T05:47:20.413Z,66.58
2023-05-01T05:48:20.440Z,69.87
2023-05-01T05:49:20.440Z,72.27
2023-05-01T05:50:20.401Z,69.37
2023-05-01T05:51:20.389Z,68.71
2023-05-01T05:52:20.405Z,64.90
2023-05-01T05:53:20.417Z,61.71
2023-05-01T05:54:21.158Z,53.86
2023-05-01T05:55:21.183Z,54.32
2023-05-01T05:56:20.624Z,57.66
2023-05-01T05:57:20.649Z,58.49
2023-05-01T05:58:20.642Z,58.35
2023-05-01T05:59:20.640Z,59.14
2023-05-01T06:00:20.658Z,61.31
2023-05-01T06:01:20.687Z,51.27
2023-05-01T06:02:20.768Z,53.51
2023-05-01T06:03:21.729Z,50.73
2023-05-01T06:04:20.785Z,55.97
2023-05-01T06:05:23.694Z,52.71
2023-05-01T06:06:20.801Z,52.63
2023-05-01T06:07:20.765Z,57.60
2023-05-01T06:08:20.802Z,60.26
2023-05-01T06:09:20.776Z,60.15
2023-05-01T06:10:20.767Z,56.95
2023-05-01T06:11:21.681Z,51.73
2023-05-01T06:12:20.786Z,54.08
2023-05-01T06:13:20.748Z,52.33
2023-05-01T06:14:20.768Z,50.69
2023-05-01T06:15:20.771Z,53.43
2023-05-01T06:16:20.807Z,53.39
2023-05-01T06:17:20.812Z,45.08
2023-05-01T06:18:20.769Z,50.03
2023-05-01T06:19:20.778Z,46.44
2023-05-01T06:20:20.780Z,51.43
2023-05-01T06:21:20.796Z,48.14
2023-05-01T06:22:20.765Z,50.85
2023-05-01T06:23:20.792Z,49.91
2023-05-01T06:24:20.801Z,54.18
2023-05-01T06:25:20.764Z,49.42
2023-05-01T06:26:20.786Z,50.96
2023-05-01T06:27:20.799Z,47.77
2023-05-01T06:28:20.767Z,48.06
2023-05-01T06:29:20.774Z,45.37
2023-05-01T06:30:20.770Z,45.71
2023-05-01T06:31:20.810Z,45.95
2023-05-01T06:32:20.847Z,43.56
2023-05-01T06:33:20.866Z,44.09
2023-05-01T06:34:20.790Z,44.12
2023-05-01T06:35:20.779Z,44.24
2023-05-01T06:36:20.816Z,41.77
2023-05-01T06:37:21.176Z,44.70
2023-05-01T06:38:21.667Z,42.30
2023-05-01T06:39:20.820Z,41.67
2023-05-01T06:40:20.840Z,46.11
2023-05-01T06:41:20.809Z,45.14
2023-05-01T06:42:21.673Z,43.84
2023-05-01T06:43:20.863Z,45.55
2023-05-01T06:44:20.858Z,44.99
2023-05-01T06:45:21.679Z,43.76
2023-05-01T06:46:20.938Z,44.51
2023-05-01T06:47:21.250Z,44.20
2023-05-01T06:48:21.002Z,45.42
2023-05-01T06:49:20.974Z,45.19
2023-05-01T06:50:21.003Z,47.36
2023-05-01T06:51:21.000Z,48.72
2023-05-01T06:52:21.050Z,47.71
2023-05-01T06:53:21.078Z,50.16
2023-05-01T06:54:21.088Z,48.93
2023-05-01T06:55:21.065Z,50.30
2023-05-01T06:56:21.073Z,51.16
2023-05-01T06:57:21.103Z,50.15
2023-05-01T06:58:24.072Z,47.83
2023-05-01T06:59:21.107Z,46.44
2023-05-01T07:00:21.145Z,49.29
2023-05-01T07:01:21.240Z,49.19
2023-05-01T07:02:21.329Z,52.55
2023-05-01T07:03:21.261Z,48.29
2023-05-01T07:04:21.126Z,47.60
2023-05-01T07:05:21.128Z,48.55
2023-05-01T07:06:21.202Z,51.43
2023-05-01T07:07:21.174Z,50.84
2023-05-01T07:08:21.723Z,50.26
2023-05-01T07:09:21.176Z,52.39
2023-05-01T07:10:21.189Z,55.24
2023-05-01T07:11:21.185Z,53.20
2023-05-01T07:12:21.176Z,50.04
2023-05-01T07:13:21.195Z,51.95
2023-05-01T07:14:21.225Z,56.85
2023-05-01T07:15:21.699Z,56.67
2023-05-01T07:16:21.257Z,58.43
2023-05-01T07:17:21.237Z,52.48
2023-05-01T07:18:21.203Z,54.55
2023-05-01T07:19:21.178Z,52.84
2023-05-01T07:20:21.204Z,54.98
2023-05-01T07:21:21.183Z,53.30
2023-05-01T07:22:21.218Z,51.93
2023-05-01T07:23:21.187Z,54.02
2023-05-01T07:24:21.188Z,52.40
2023-05-01T07:25:21.203Z,53.03
2023-05-01T07:26:21.191Z,51.17
2023-05-01T07:27:22.627Z,55.93
2023-05-01T07:28:21.319Z,57.84
2023-05-01T07:29:23.883Z,55.74
2023-05-01T07:30:21.544Z,57.15
2023-05-01T07:31:21.661Z,56.42
2023-05-01T07:32:21.590Z,48.68
2023-05-01T07:33:21.475Z,46.71
2023-05-01T07:34:21.507Z,45.37
2023-05-01T07:35:21.549Z,52.75
2023-05-01T07:36:21.642Z,48.96
2023-05-01T07:37:21.516Z,50.82
2023-05-01T07:38:21.499Z,48.56
2023-05-01T07:39:21.529Z,51.14
2023-05-01T07:40:21.564Z,49.45
2023-05-01T07:41:21.541Z,48.40
2023-05-01T07:42:21.590Z,51.98
2023-05-01T07:43:21.579Z,52.12
2023-05-01T07:44:21.621Z,55.50
2023-05-01T07:45:21.624Z,56.07
2023-05-01T07:46:21.674Z,56.84
2023-05-01T07:47:21.637Z,55.71
2023-05-01T07:48:21.664Z,56.67
2023-05-01T07:49:21.702Z,59.06
2023-05-01T07:50:21.732Z,57.13
2023-05-01T07:51:21.708Z,54.19
2023-05-01T07:52:21.812Z,55.68
2023-05-01T07:53:21.710Z,55.23
2023-05-01T07:54:21.734Z,54.46
2023-05-01T07:55:21.769Z,57.37
2023-05-01T07:56:21.774Z,51.26
2023-05-01T07:57:21.780Z,52.08
2023-05-01T07:58:21.850Z,44.98
2023-05-01T07:59:21.807Z,45.05
2023-05-01T08:00:21.804Z,47.42
2023-05-01T08:01:21.853Z,42.43
2023-05-01T08:02:21.926Z,44.13
2023-05-01T08:03:22.125Z,50.35
2023-05-01T08:04:22.797Z,51.20
2023-05-01T08:05:21.887Z,51.20
2023-05-01T08:06:21.897Z,50.11
2023-05-01T08:07:21.931Z,46.49
2023-05-01T08:08:21.921Z,49.07
2023-05-01T08:09:22.041Z,44.87
2023-05-01T08:10:21.964Z,37.95
2023-05-01T08:11:21.996Z,38.24
2023-05-01T08:12:21.999Z,31.82
2023-05-01T08:13:21.968Z,34.40
2023-05-01T08:14:22.758Z,30.67
2023-05-01T08:15:22.018Z,27.79
2023-05-01T08:16:22.792Z,26.59
2023-05-01T08:17:22.066Z,25.80
2023-05-01T08:18:22.011Z,25.00
2023-05-01T08:19:22.007Z,25.04
2023-05-01T08:20:22.034Z,25.02
2023-05-01T08:21:22.019Z,25.93
2023-05-01T08:22:22.051Z,28.59
2023-05-01T08:23:22.027Z,30.21
2023-05-01T08:24:22.018Z,28.28
2023-05-01T08:25:22.042Z,27.32
2023-05-01T08:26:24.721Z,25.80
2023-05-01T08:27:22.022Z,27.18
2023-05-01T08:28:22.036Z,24.86
2023-05-01T08:29:22.033Z,26.55
2023-05-01T08:30:22.040Z,27.31
2023-05-01T08:31:22.091Z,25.66
2023-05-01T08:32:22.328Z,25.13
2023-05-01T08:33:22.029Z,26.00
2023-05-01T08:34:22.721Z,25.95
2023-05-01T08:35:22.043Z,24.89
2023-05-01T08:36:22.036Z,25.22
2023-05-01T08:37:22.045Z,27.84
2023-05-01T08:38:22.012Z,31.12
2023-05-01T08:39:22.080Z,27.21
2023-05-01T08:40:22.770Z,34.99
2023-05-01T08:41:22.061Z,37.11
2023-05-01T08:42:22.046Z,32.55
2023-05-01T08:43:22.046Z,31.25
2023-05-01T08:44:22.042Z,31.19
2023-05-01T08:45:22.064Z,28.38
2023-05-01T08:46:22.058Z,32.41
2023-05-01T08:47:22.125Z,29.28
2023-05-01T08:48:22.039Z,29.53
2023-05-01T08:49:22.048Z,30.56
2023-05-01T08:50:22.058Z,31.87
2023-05-01T08:51:22.729Z,39.46
2023-05-01T08:52:22.032Z,42.41
2023-05-01T08:53:21.996Z,42.74
2023-05-01T08:54:22.099Z,47.18
2023-05-01T08:55:22.003Z,58.72
2023-05-01T08:56:22.037Z,68.23
2023-05-01T08:57:22.106Z,70.42
2023-05-01T08:58:22.172Z,71.18
2023-05-01T08:59:22.207Z,71.14
2023-05-01T09:00:22.350Z,62.79
2023-05-01T09:01:22.327Z,57.50
2023-05-01T09:02:22.310Z,54.59
2023-05-01T09:03:22.320Z,55.16
2023-05-01T09:04:22.854Z,58.61
2023-05-01T09:05:22.276Z,60.71
2023-05-01T09:06:22.180Z,62.04
2023-05-01T09:07:22.157Z,67.05
2023-05-01T09:08:22.270Z,69.68
2023-05-01T09:09:22.229Z,72.80
2023-05-01T09:10:22.275Z,76.43
2023-05-01T09:11:22.432Z,81.36
2023-05-01T09:12:22.404Z,83.88
2023-05-01T09:13:22.470Z,86.93
2023-05-01T09:14:22.505Z,90.24
2023-05-01T09:15:22.589Z,94.03
2023-05-01T09:16:22.665Z,97.03
2023-05-01T09:17:23.283Z,100.74
2023-05-01T09:18:22.744Z,103.18
2023-05-01T09:19:22.784Z,107.96
2023-05-01T09:20:22.855Z,111.54
2023-05-01T09:21:22.920Z,114.47
2023-05-01T09:22:22.983Z,117.60
2023-05-01T09:23:23.034Z,118.88
2023-05-01T09:24:23.068Z,122.13
2023-05-01T09:25:23.120Z,125.84
2023-05-01T09:26:23.240Z,129.11
2023-05-01T09:27:23.243Z,132.37
2023-05-01T09:28:23.315Z,135.72
2023-05-01T09:29:23.391Z,136.98
2023-05-01T09:30:23.485Z,140.35
2023-05-01T09:31:23.569Z,143.82
2023-05-01T09:32:23.555Z,146.55
2023-05-01T09:33:23.623Z,148.47
2023-05-01T09:34:23.626Z,151.84
2023-05-01T09:35:23.680Z,154.29
2023-05-01T09:36:23.755Z,155.78
2023-05-01T09:37:23.938Z,155.98
2023-05-01T09:38:23.766Z,156.78
2023-05-01T09:39:23.740Z,158.98
2023-05-01T09:40:23.739Z,161.85
2023-05-01T09:41:23.763Z,167.44
2023-05-01T09:42:23.692Z,169.11
2023-05-01T09:43:23.736Z,172.80
2023-05-01T09:44:23.700Z,173.24
2023-05-01T09:45:23.723Z,175.41
2023-05-01T09:46:24.315Z,176.75
2023-05-01T09:47:23.818Z,179.94
2023-05-01T09:48:24.351Z,180.32
2023-05-01T09:49:23.897Z,184.37
2023-05-01T09:50:23.969Z,184.11
2023-05-01T09:51:24.028Z,186.41
2023-05-01T09:52:24.087Z,186.70
2023-05-01T09:53:24.151Z,189.61
2023-05-01T09:54:24.759Z,191.36
2023-05-01T09:55:25.617Z,193.66
2023-05-01T09:56:24.278Z,193.59
2023-05-01T09:57:27.256Z,195.39
2023-05-01T09:58:24.336Z,196.90
2023-05-01T09:59:24.325Z,199.33
2023-05-01T10:00:24.317Z,200.69
2023-05-01T10:01:24.323Z,202.35
2023-05-01T10:02:24.376Z,203.20
2023-05-01T10:03:24.403Z,204.14
2023-05-01T10:04:24.308Z,206.29
2023-05-01T10:05:24.364Z,206.87
2023-05-01T10:06:24.360Z,209.29
2023-05-01T10:07:24.322Z,208.08
2023-05-01T10:08:24.320Z,210.54
2023-05-01T10:09:24.291Z,212.26
2023-05-01T10:10:24.288Z,212.79
2023-05-01T10:11:24.263Z,212.95
2023-05-01T10:12:24.240Z,213.56
2023-05-01T10:13:24.256Z,214.41
2023-05-01T10:14:24.491Z,216.33
2023-05-01T10:15:26.196Z,219.78
2023-05-01T10:16:24.338Z,219.63
2023-05-01T10:17:24.290Z,222.41
2023-05-01T10:18:24.220Z,223.81
2023-05-01T10:19:24.241Z,223.07
2023-05-01T10:20:24.251Z,224.45
2023-05-01T10:21:24.241Z,225.54
2023-05-01T10:22:24.225Z,227.12
2023-05-01T10:23:24.227Z,226.70
2023-05-01T10:24:24.205Z,227.69
2023-05-01T10:25:24.229Z,229.37
2023-05-01T10:26:24.195Z,229.61
2023-05-01T10:27:24.239Z,230.49
2023-05-01T10:28:24.195Z,230.54
2023-05-01T10:29:24.182Z,231.82
2023-05-01T10:30:24.177Z,234.18
2023-05-01T10:31:24.202Z,233.13
2023-05-01T10:32:24.135Z,234.99
2023-05-01T10:33:24.136Z,235.57
2023-05-01T10:34:26.094Z,234.80
2023-05-01T10:35:24.112Z,234.91
2023-05-01T10:36:24.243Z,235.20
2023-05-01T10:37:24.131Z,236.23
2023-05-01T10:38:24.127Z,237.69
2023-05-01T10:39:24.126Z,239.38
2023-05-01T10:40:24.102Z,235.09
2023-05-01T10:41:24.118Z,235.83
2023-05-01T10:42:24.121Z,237.77
2023-05-01T10:43:24.118Z,239.49
2023-05-01T10:44:24.089Z,241.36
2023-05-01T10:45:24.092Z,243.90
2023-05-01T10:46:24.139Z,243.13
2023-05-01T10:47:24.240Z,244.11
2023-05-01T10:48:24.062Z,245.49
2023-05-01T10:49:24.062Z,244.45
2023-05-01T10:50:24.109Z,244.46
2023-05-01T10:51:27.268Z,245.88
2023-05-01T10:52:24.199Z,247.03
2023-05-01T10:53:24.140Z,246.71
2023-05-01T10:54:24.129Z,248.47
2023-05-01T10:55:24.139Z,246.79
2023-05-01T10:56:24.168Z,248.41
2023-05-01T10:57:24.112Z,248.76
2023-05-01T10:58:24.794Z,248.80
2023-05-01T10:59:24.115Z,248.99
2023-05-01T11:00:24.116Z,249.10
2023-05-01T11:01:24.156Z,249.47
2023-05-01T11:02:24.160Z,249.81
2023-05-01T11:03:24.148Z,250.86
2023-05-01T11:04:24.089Z,252.23
2023-05-01T11:05:32.303Z,249.31
2023-05-01T11:06:25.204Z,249.36
2023-05-01T11:07:24.171Z,249.21
2023-05-01T11:08:24.070Z,249.67
2023-05-01T11:09:24.054Z,249.95
2023-05-01T11:10:24.024Z,250.61
2023-05-01T11:11:24.076Z,249.90
2023-05-01T11:12:24.065Z,249.87
2023-05-01T11:13:24.026Z,248.01
2023-05-01T11:14:24.031Z,249.05
2023-05-01T11:15:23.970Z,249.33
2023-05-01T11:16:24.037Z,248.62
2023-05-01T11:17:24.077Z,248.45
2023-05-01T11:18:24.074Z,244.21
2023-05-01T11:19:24.142Z,243.79
2023-05-01T11:20:24.183Z,243.01
2023-05-01T11:21:24.228Z,242.69
2023-05-01T11:22:24.245Z,241.61
2023-05-01T11:23:24.341Z,240.95
2023-05-01T11:24:24.316Z,242.10
2023-05-01T11:25:24.364Z,241.84
2023-05-01T11:26:24.427Z,241.17
2023-05-01T11:27:24.441Z,240.36
2023-05-01T11:28:24.495Z,239.35
2023-05-01T11:29:24.609Z,237.55
2023-05-01T11:30:24.567Z,235.02
2023-05-01T11:31:24.735Z,232.18
2023-05-01T11:32:24.793Z,227.76
2023-05-01T11:33:24.708Z,220.11
2023-05-01T11:34:24.779Z,216.95
2023-05-01T11:35:24.770Z,214.54
2023-05-01T11:36:24.847Z,213.54
2023-05-01T11:37:24.832Z,212.01
2023-05-01T11:38:24.879Z,210.58
2023-05-01T11:39:24.921Z,209.83
2023-05-01T11:40:25.072Z,205.57
2023-05-01T11:41:24.984Z,205.97
2023-05-01T11:42:25.110Z,208.51
2023-05-01T11:43:25.046Z,209.62
2023-05-01T11:44:25.069Z,210.71
2023-05-01T11:45:25.094Z,209.88
2023-05-01T11:46:25.248Z,211.30
2023-05-01T11:47:25.198Z,214.08
2023-05-01T11:48:25.211Z,214.57
2023-05-01T11:49:25.240Z,213.10
2023-05-01T11:50:25.274Z,214.34
2023-05-01T11:51:25.817Z,214.37
2023-05-01T11:52:25.249Z,212.36
2023-05-01T11:53:25.277Z,214.59
2023-05-01T11:54:25.258Z,217.24
2023-05-01T11:55:25.323Z,220.46
2023-05-01T11:56:27.158Z,221.08
2023-05-01T11:57:25.246Z,222.57
2023-05-01T11:58:25.284Z,222.67
2023-05-01T11:59:25.260Z,223.45
2023-05-01T12:00:25.261Z,224.24
2023-05-01T12:01:25.291Z,226.73
2023-05-01T12:02:25.435Z,226.92
2023-05-01T12:03:25.569Z,227.88
2023-05-01T12:04:25.387Z,229.24
2023-05-01T12:05:25.374Z,230.45
2023-05-01T12:06:25.438Z,230.88
2023-05-01T12:07:25.415Z,230.01
2023-05-01T12:08:25.458Z,231.54
2023-05-01T12:09:25.496Z,233.08
2023-05-01T12:10:25.488Z,234.67
2023-05-01T12:11:25.523Z,234.94
2023-05-01T12:12:25.527Z,234.69
2023-05-01T12:13:25.564Z,235.42
2023-05-01T12:14:25.560Z,236.83
2023-05-01T12:15:25.627Z,237.17
2023-05-01T12:16:25.643Z,237.71
2023-05-01T12:17:25.854Z,238.97
2023-05-01T12:18:25.711Z,238.22
2023-05-01T12:19:25.677Z,240.37
2023-05-01T12:20:25.682Z,240.69
2023-05-01T12:21:25.736Z,240.79
2023-05-01T12:22:25.731Z,242.27
2023-05-01T12:23:25.751Z,243.65
2023-05-01T12:24:25.745Z,243.28
2023-05-01T12:25:25.861Z,243.38
2023-05-01T12:26:25.803Z,244.18
2023-05-01T12:27:25.807Z,237.11
2023-05-01T12:28:25.824Z,226.58
2023-05-01T12:29:25.911Z,214.61
2023-05-01T12:30:25.860Z,212.02
2023-05-01T12:31:25.913Z,214.21
2023-05-01T12:32:25.929Z,215.81
2023-05-01T12:33:25.899Z,216.44
2023-05-01T12:34:25.914Z,218.14
2023-05-01T12:35:25.903Z,218.27
2023-05-01T12:36:25.884Z,218.22
2023-05-01T12:37:25.874Z,218.33
2023-05-01T12:38:25.877Z,219.10